createdAt,value
2019-03-29T00:01:43.312Z,23.73
2019-03-29T00:04:11.910Z,26.53
2019-03-29T00:06:40.444Z,22.77
2019-03-29T00:09:09.004Z,24.53
2019-03-29T00:11:38.230Z,24.20
2019-03-29T00:14:07.515Z,25.30
2019-03-29T00:16:36.056Z,23.73
2019-03-29T00:19:04.622Z,25.23
2019-03-29T00:21:34.019Z,26.00
2019-03-29T00:24:06.894Z,23.67
2019-03-29T00:26:33.039Z,21.40
2019-03-29T00:29:03.097Z,23.03
2019-03-29T00:31:31.702Z,21.07
2019-03-29T00:34:00.242Z,22.27
2019-03-29T00:36:31.617Z,23.90
2019-03-29T00:39:00.180Z,20.37
2019-03-29T00:41:28.749Z,22.73
2019-03-29T00:43:57.272Z,21.67
2019-03-29T00:46:25.848Z,21.53
2019-03-29T00:48:54.417Z,19.40
2019-03-29T00:51:22.993Z,20.67
2019-03-29T00:53:51.564Z,22.10
2019-03-29T00:56:20.118Z,21.17
2019-03-29T00:58:48.874Z,21.00
2019-03-29T01:01:17.647Z,19.40
2019-03-29T01:03:46.253Z,21.23
2019-03-29T01:06:15.209Z,20.57
2019-03-29T01:08:43.791Z,20.07
2019-03-29T01:11:12.343Z,23.17
2019-03-29T01:13:40.870Z,23.43
2019-03-29T01:16:09.429Z,21.53
2019-03-29T01:18:38.285Z,20.13
2019-03-29T01:21:06.869Z,21.43
2019-03-29T01:23:35.432Z,21.60
2019-03-29T01:26:03.974Z,21.37
2019-03-29T01:28:32.512Z,23.57
2019-03-29T01:31:01.081Z,21.77
2019-03-29T01:33:29.627Z,21.33
2019-03-29T01:35:58.189Z,23.17
2019-03-29T01:38:26.711Z,23.23
2019-03-29T01:40:55.274Z,21.83
2019-03-29T01:43:23.811Z,20.07
2019-03-29T01:45:52.350Z,23.73
2019-03-29T01:48:20.923Z,22.97
2019-03-29T01:50:49.456Z,27.17
2019-03-29T01:53:18.025Z,21.60
2019-03-29T01:55:46.586Z,23.23
2019-03-29T01:58:15.256Z,23.53
2019-03-29T02:00:43.920Z,24.17
2019-03-29T02:03:13.164Z,23.63
2019-03-29T02:05:41.879Z,23.87
2019-03-29T02:08:10.446Z,23.03
2019-03-29T02:10:38.987Z,21.73
2019-03-29T02:13:07.563Z,20.80
2019-03-29T02:15:36.100Z,25.00
2019-03-29T02:18:04.859Z,26.07
2019-03-29T02:20:33.506Z,23.60
2019-03-29T02:23:02.118Z,25.27
2019-03-29T02:25:30.629Z,26.37
2019-03-29T02:27:59.249Z,24.17
2019-03-29T02:30:27.793Z,23.97
2019-03-29T02:32:56.364Z,23.47
2019-03-29T02:35:24.870Z,26.57
2019-03-29T02:37:53.411Z,26.70
2019-03-29T02:40:22.810Z,25.50
2019-03-29T02:42:51.718Z,27.57
2019-03-29T02:45:20.236Z,25.23
2019-03-29T02:47:49.172Z,24.63
2019-03-29T02:50:17.757Z,27.10
2019-03-29T02:52:46.321Z,24.47
2019-03-29T02:55:14.877Z,25.33
2019-03-29T02:57:43.433Z,25.13
2019-03-29T03:00:12.935Z,28.17
2019-03-29T03:02:41.512Z,28.03
2019-03-29T03:05:10.400Z,25.60
2019-03-29T03:07:39.000Z,27.13
2019-03-29T03:10:08.781Z,26.60
2019-03-29T03:12:37.401Z,29.63
2019-03-29T03:15:08.208Z,27.03
2019-03-29T03:17:36.935Z,27.57
2019-03-29T03:20:08.057Z,27.60
2019-03-29T03:22:36.683Z,29.77
2019-03-29T03:25:06.087Z,32.10
2019-03-29T03:27:34.688Z,29.60
2019-03-29T03:30:03.703Z,29.33
2019-03-29T03:32:32.244Z,29.80
2019-03-29T03:35:00.978Z,29.23
2019-03-29T03:37:29.559Z,29.17
2019-03-29T03:39:58.096Z,27.30
2019-03-29T03:42:26.843Z,26.10
2019-03-29T03:44:55.402Z,28.03
2019-03-29T03:47:23.934Z,28.47
2019-03-29T03:49:52.498Z,27.67
2019-03-29T03:52:21.156Z,28.43
2019-03-29T03:54:49.734Z,27.80
2019-03-29T03:57:19.461Z,26.57
2019-03-29T03:59:49.242Z,25.30
2019-03-29T04:02:17.775Z,25.67
2019-03-29T04:04:46.356Z,23.20
2019-03-29T04:07:14.880Z,24.77
2019-03-29T04:09:49.751Z,25.00
2019-03-29T04:12:13.870Z,22.23
2019-03-29T04:14:42.453Z,22.70
2019-03-29T04:17:10.990Z,23.03
2019-03-29T04:19:39.522Z,25.00
2019-03-29T04:22:08.066Z,22.23
2019-03-29T04:24:36.644Z,22.73
2019-03-29T04:27:05.220Z,23.70
2019-03-29T04:29:33.804Z,20.93
2019-03-29T04:32:02.363Z,20.23
2019-03-29T04:34:30.920Z,21.90
2019-03-29T04:36:59.474Z,19.47
2019-03-29T04:39:28.051Z,20.17
2019-03-29T04:41:56.604Z,21.00
2019-03-29T04:44:25.162Z,19.00
2019-03-29T04:46:53.733Z,19.67
2019-03-29T04:49:22.333Z,18.30
2019-03-29T04:51:51.191Z,18.83
2019-03-29T04:54:19.791Z,19.43
2019-03-29T04:56:48.339Z,19.73
2019-03-29T04:59:16.865Z,20.37
2019-03-29T05:01:45.428Z,20.43
2019-03-29T05:04:13.996Z,18.00
2019-03-29T05:06:42.557Z,18.87
2019-03-29T05:09:11.100Z,18.47
2019-03-29T05:11:39.644Z,17.40
2019-03-29T05:14:08.202Z,21.57
2019-03-29T05:16:36.779Z,18.77
2019-03-29T05:19:05.324Z,20.73
2019-03-29T05:21:33.914Z,20.53
2019-03-29T05:24:02.451Z,20.30
2019-03-29T05:26:31.040Z,19.23
2019-03-29T05:28:59.577Z,21.07
2019-03-29T05:31:28.187Z,22.77
2019-03-29T05:33:56.728Z,19.47
2019-03-29T05:36:25.287Z,23.27
2019-03-29T05:38:53.829Z,19.83
2019-03-29T05:41:22.392Z,22.70
2019-03-29T05:43:50.936Z,21.37
2019-03-29T05:46:19.511Z,21.60
2019-03-29T05:48:48.042Z,22.73
2019-03-29T05:51:16.604Z,23.37
2019-03-29T05:53:45.158Z,20.73
2019-03-29T05:56:13.736Z,22.00
2019-03-29T05:58:42.312Z,21.67
2019-03-29T06:01:10.875Z,22.93
2019-03-29T06:03:39.425Z,22.77
2019-03-29T06:06:07.984Z,22.80
2019-03-29T06:08:36.527Z,23.60
2019-03-29T06:11:05.126Z,22.57
2019-03-29T06:13:33.676Z,23.83
2019-03-29T06:16:02.230Z,23.73
2019-03-29T06:18:30.829Z,23.77
2019-03-29T06:20:59.371Z,24.43
2019-03-29T06:23:27.951Z,22.60
2019-03-29T06:25:56.520Z,24.53
2019-03-29T06:28:25.130Z,25.13
2019-03-29T06:30:53.676Z,24.03
2019-03-29T06:33:22.237Z,25.67
2019-03-29T06:35:53.246Z,24.83
2019-03-29T06:38:24.451Z,24.23
2019-03-29T06:41:02.908Z,24.73
2019-03-29T06:43:23.438Z,26.70
2019-03-29T06:45:52.041Z,25.50
2019-03-29T06:48:20.606Z,24.80
2019-03-29T06:50:49.275Z,26.47
2019-03-29T06:53:17.934Z,25.57
2019-03-29T06:55:46.503Z,27.00
2019-03-29T06:58:15.085Z,24.70
2019-03-29T07:00:46.517Z,26.30
2019-03-29T07:03:14.099Z,25.97
2019-03-29T07:05:42.652Z,27.40
2019-03-29T07:08:11.238Z,25.93
2019-03-29T07:10:39.776Z,26.37
2019-03-29T07:13:08.357Z,25.10
2019-03-29T07:15:36.919Z,26.70
2019-03-29T07:18:05.459Z,26.50
2019-03-29T07:20:34.041Z,27.27
2019-03-29T07:23:02.623Z,23.33
2019-03-29T07:25:31.189Z,27.03
2019-03-29T07:27:59.746Z,24.33
2019-03-29T07:30:28.338Z,21.90
2019-03-29T07:32:56.912Z,20.93
2019-03-29T07:35:25.446Z,21.50
2019-03-29T07:37:53.992Z,22.87
2019-03-29T07:40:22.582Z,22.20
2019-03-29T07:42:51.122Z,21.87
2019-03-29T07:45:19.713Z,20.20
2019-03-29T07:47:48.306Z,18.70
2019-03-29T07:50:19.122Z,23.13
2019-03-29T07:52:47.344Z,18.87
2019-03-29T07:55:15.898Z,19.23
2019-03-29T07:57:44.448Z,20.73
2019-03-29T08:00:13.390Z,20.23
2019-03-29T08:02:41.894Z,22.20
2019-03-29T08:05:10.606Z,22.87
2019-03-29T08:07:39.150Z,18.97
2019-03-29T08:10:07.849Z,19.33
2019-03-29T08:12:36.445Z,19.27
2019-03-29T08:15:05.412Z,19.07
2019-03-29T08:17:34.020Z,19.80
2019-03-29T08:20:36.437Z,21.80
2019-03-29T08:22:33.306Z,21.40
2019-03-29T08:25:02.051Z,17.80
2019-03-29T08:27:30.651Z,19.17
2019-03-29T08:30:00.405Z,18.40
2019-03-29T08:32:28.999Z,16.50
2019-03-29T08:34:57.664Z,16.67
2019-03-29T08:37:26.207Z,17.47
2019-03-29T08:39:56.640Z,15.77
2019-03-29T08:42:25.411Z,14.50
2019-03-29T08:44:53.876Z,16.53
2019-03-29T08:47:22.851Z,29.80
2019-03-29T08:49:51.505Z,24.67
2019-03-29T08:52:21.845Z,22.33
2019-03-29T08:54:51.304Z,17.20
2019-03-29T08:57:20.248Z,15.87
2019-03-29T08:59:48.885Z,13.17
2019-03-29T09:02:17.751Z,12.00
2019-03-29T09:04:46.344Z,8.73
2019-03-29T09:07:14.929Z,11.53
2019-03-29T09:09:46.382Z,12.13
2019-03-29T09:12:15.103Z,11.53
2019-03-29T09:14:43.783Z,12.73
2019-03-29T09:17:12.362Z,10.23
2019-03-29T09:19:40.994Z,9.30
2019-03-29T09:22:09.628Z,13.80
2019-03-29T09:24:38.176Z,12.17
2019-03-29T09:27:06.773Z,10.90
2019-03-29T09:29:35.319Z,10.73
2019-03-29T09:32:03.876Z,12.97
2019-03-29T09:34:32.507Z,7.73
2019-03-29T09:37:01.168Z,5.00
2019-03-29T09:39:29.728Z,2.67
2019-03-29T09:41:58.445Z,2.43
2019-03-29T09:44:26.992Z,2.00
2019-03-29T09:46:55.586Z,1.43
2019-03-29T09:49:24.233Z,1.97
2019-03-29T09:51:52.848Z,1.73
2019-03-29T09:54:21.458Z,1.73
2019-03-29T09:56:50.116Z,1.80
2019-03-29T09:59:18.707Z,5.23
2019-03-29T10:01:47.292Z,3.20
2019-03-29T10:04:15.927Z,2.33
2019-03-29T10:06:44.479Z,5.83
2019-03-29T10:09:13.068Z,3.00
2019-03-29T10:11:41.644Z,2.20
2019-03-29T10:14:10.262Z,1.97
2019-03-29T10:16:38.862Z,1.63
2019-03-29T10:19:07.463Z,2.03
2019-03-29T10:21:36.032Z,4.37
2019-03-29T10:24:04.589Z,2.87
2019-03-29T10:26:33.165Z,2.90
2019-03-29T10:29:01.764Z,3.23
2019-03-29T10:31:32.366Z,4.73
2019-03-29T10:34:01.093Z,2.80
2019-03-29T10:36:29.660Z,7.13
2019-03-29T10:38:58.239Z,3.83
2019-03-29T10:41:26.808Z,1.97
2019-03-29T10:43:55.366Z,2.20
2019-03-29T10:46:23.953Z,2.27
2019-03-29T10:48:52.509Z,2.50
2019-03-29T10:51:21.079Z,4.23
2019-03-29T10:53:49.662Z,4.03
2019-03-29T10:56:18.209Z,2.10
2019-03-29T10:58:46.776Z,2.30
2019-03-29T11:01:15.358Z,3.00
2019-03-29T11:03:44.037Z,3.00
2019-03-29T11:06:12.928Z,3.27
2019-03-29T11:08:43.595Z,3.80
2019-03-29T11:11:12.035Z,3.00
2019-03-29T11:13:41.128Z,3.60
2019-03-29T11:16:10.825Z,3.50
2019-03-29T11:18:39.408Z,3.70
2019-03-29T11:21:07.988Z,3.87
2019-03-29T11:23:36.571Z,3.60
2019-03-29T11:26:05.123Z,3.50
2019-03-29T11:28:33.702Z,3.10
2019-03-29T11:31:02.277Z,4.67
2019-03-29T11:33:30.838Z,3.00
2019-03-29T11:35:59.465Z,3.70
2019-03-29T11:38:28.016Z,4.70
2019-03-29T11:40:57.370Z,3.90
2019-03-29T11:43:27.423Z,3.93
2019-03-29T11:45:56.178Z,4.90
2019-03-29T11:48:25.602Z,5.90
2019-03-29T11:50:54.224Z,4.70
2019-03-29T11:53:22.830Z,5.10
2019-03-29T11:55:52.264Z,5.37
2019-03-29T11:58:20.846Z,9.00
2019-03-29T12:00:49.438Z,7.20
2019-03-29T12:03:18.217Z,9.87
2019-03-29T12:05:46.936Z,7.00
2019-03-29T12:08:15.509Z,7.00
2019-03-29T12:10:44.093Z,13.43
2019-03-29T12:13:12.772Z,8.97
2019-03-29T12:15:41.317Z,7.30
2019-03-29T12:18:09.877Z,6.93
2019-03-29T12:20:38.437Z,7.07
2019-03-29T12:23:07.033Z,6.17
2019-03-29T12:25:35.578Z,5.53
2019-03-29T12:28:04.661Z,5.60
2019-03-29T12:30:33.529Z,6.00
2019-03-29T12:33:02.118Z,5.78
2019-03-29T12:35:30.739Z,6.28
2019-03-29T12:37:59.313Z,6.00
2019-03-29T12:40:27.905Z,6.05
2019-03-29T12:42:56.721Z,5.75
2019-03-29T12:45:25.345Z,11.63
2019-03-29T12:47:53.927Z,5.10
2019-03-29T12:50:22.492Z,15.30
2019-03-29T12:52:51.086Z,3.77
2019-03-29T12:55:19.705Z,3.22
2019-03-29T12:57:48.297Z,4.97
2019-03-29T13:00:17.515Z,13.53
2019-03-29T13:02:46.098Z,3.05
2019-03-29T13:05:14.789Z,8.53
2019-03-29T13:07:43.456Z,2.20
2019-03-29T13:10:12.724Z,3.27
2019-03-29T13:12:41.378Z,3.10
2019-03-29T13:15:10.315Z,2.70
2019-03-29T13:17:38.956Z,2.45
2019-03-29T13:20:08.084Z,2.70
2019-03-29T13:22:36.668Z,7.90
2019-03-29T13:25:07.546Z,2.00
2019-03-29T13:27:36.202Z,2.55
2019-03-29T13:30:06.693Z,7.00
2019-03-29T13:32:35.243Z,3.35
2019-03-29T13:35:04.766Z,2.37
2019-03-29T13:37:33.360Z,3.08
2019-03-29T13:40:01.990Z,2.77
2019-03-29T13:42:30.583Z,2.33
2019-03-29T13:44:59.157Z,2.00
2019-03-29T13:47:27.746Z,2.80
2019-03-29T13:49:56.347Z,3.12
2019-03-29T13:52:24.954Z,3.25
2019-03-29T13:54:53.491Z,3.25
2019-03-29T13:57:22.082Z,3.50
2019-03-29T13:59:50.706Z,3.25
2019-03-29T14:02:19.325Z,2.87
2019-03-29T14:04:47.909Z,2.90
2019-03-29T14:07:16.494Z,2.72
2019-03-29T14:09:45.074Z,2.60
2019-03-29T14:12:13.710Z,2.55
2019-03-29T14:14:42.314Z,2.40
2019-03-29T14:17:10.904Z,2.60
2019-03-29T14:19:39.597Z,6.42
2019-03-29T14:22:08.186Z,3.17
2019-03-29T14:24:36.731Z,2.60
2019-03-29T14:27:05.325Z,2.22
2019-03-29T14:29:33.954Z,2.83
2019-03-29T14:32:02.550Z,2.70
2019-03-29T14:34:31.127Z,3.20
2019-03-29T14:36:59.947Z,2.37
2019-03-29T14:39:28.750Z,2.52
2019-03-29T14:41:57.731Z,2.72
2019-03-29T14:44:26.290Z,2.87
2019-03-29T14:46:54.886Z,2.95
2019-03-29T14:49:23.465Z,3.15
2019-03-29T14:51:52.019Z,3.17
2019-03-29T14:54:20.599Z,2.47
2019-03-29T14:56:49.154Z,2.50
2019-03-29T14:59:17.868Z,2.73
2019-03-29T15:01:46.426Z,2.40
2019-03-29T15:04:15.047Z,4.87
2019-03-29T15:06:43.647Z,2.63
2019-03-29T15:09:12.227Z,3.23
2019-03-29T15:11:40.790Z,2.93
2019-03-29T15:14:09.377Z,3.53
2019-03-29T15:16:37.945Z,3.00
2019-03-29T15:19:06.546Z,3.23
2019-03-29T15:21:35.091Z,2.50
2019-03-29T15:24:03.656Z,2.93
2019-03-29T15:26:32.219Z,3.47
2019-03-29T15:29:00.849Z,3.97
2019-03-29T15:31:29.409Z,2.67
2019-03-29T15:33:57.991Z,2.93
2019-03-29T15:36:26.552Z,3.17
2019-03-29T15:38:55.132Z,3.70
2019-03-29T15:41:23.679Z,3.20
2019-03-29T15:43:52.253Z,4.40
2019-03-29T15:46:20.822Z,3.00
2019-03-29T15:48:49.379Z,3.83
2019-03-29T15:51:17.981Z,2.37
2019-03-29T15:53:46.534Z,2.73
2019-03-29T15:56:15.091Z,3.07
2019-03-29T15:58:43.663Z,3.00
2019-03-29T16:01:12.240Z,3.33
2019-03-29T16:03:40.796Z,4.23
2019-03-29T16:06:09.359Z,3.23
2019-03-29T16:08:37.945Z,4.37
2019-03-29T16:11:09.054Z,3.77
2019-03-29T16:13:36.981Z,4.00
2019-03-29T16:16:05.546Z,3.80
2019-03-29T16:18:34.106Z,3.90
2019-03-29T16:21:02.927Z,4.27
2019-03-29T16:23:31.494Z,3.60
2019-03-29T16:26:00.090Z,4.07
2019-03-29T16:28:28.676Z,3.97
2019-03-29T16:30:57.244Z,4.40
2019-03-29T16:33:25.807Z,3.87
2019-03-29T16:35:54.348Z,4.73
2019-03-29T16:38:23.147Z,3.73
2019-03-29T16:40:51.702Z,3.40
2019-03-29T16:43:20.298Z,3.83
2019-03-29T16:45:48.861Z,4.80
2019-03-29T16:48:17.418Z,4.20
2019-03-29T16:50:45.990Z,4.03
2019-03-29T16:53:14.558Z,4.10
2019-03-29T16:55:43.236Z,4.17
2019-03-29T16:58:11.821Z,5.37
2019-03-29T17:00:40.368Z,6.07
2019-03-29T17:03:08.967Z,6.17
2019-03-29T17:05:37.505Z,4.43
2019-03-29T17:08:06.243Z,6.20
2019-03-29T17:10:34.800Z,4.33
2019-03-29T17:13:03.397Z,3.93
2019-03-29T17:15:31.922Z,4.37
2019-03-29T17:18:00.483Z,4.07
2019-03-29T17:20:29.095Z,4.30
2019-03-29T17:22:57.678Z,4.93
2019-03-29T17:25:26.250Z,5.47
2019-03-29T17:27:54.854Z,5.80
2019-03-29T17:30:59.807Z,4.30
2019-03-29T17:33:28.643Z,6.70
2019-03-29T17:35:57.274Z,4.60
2019-03-29T17:38:25.819Z,4.77
2019-03-29T17:40:54.450Z,5.17
2019-03-29T17:43:22.992Z,5.53
2019-03-29T17:45:51.842Z,8.87
2019-03-29T17:48:20.405Z,7.43
2019-03-29T17:50:50.706Z,6.40
2019-03-29T17:53:19.303Z,6.83
2019-03-29T17:55:47.896Z,5.50
2019-03-29T17:58:16.451Z,6.37
2019-03-29T18:00:45.048Z,5.33
2019-03-29T18:03:13.626Z,5.93
2019-03-29T18:05:42.239Z,6.30
2019-03-29T18:08:10.788Z,6.20
2019-03-29T18:10:39.387Z,5.47
2019-03-29T18:13:07.983Z,5.70
2019-03-29T18:15:36.544Z,5.40
2019-03-29T18:18:05.098Z,5.83
2019-03-29T18:20:33.710Z,7.73
2019-03-29T18:23:02.291Z,8.77
2019-03-29T18:25:30.863Z,11.87
2019-03-29T18:27:59.411Z,8.07
2019-03-29T18:30:39.021Z,7.53
2019-03-29T18:33:07.638Z,8.87
2019-03-29T18:35:36.500Z,6.73
2019-03-29T18:38:05.130Z,7.20
2019-03-29T18:40:33.694Z,7.03
2019-03-29T18:43:02.286Z,6.93
2019-03-29T18:45:30.827Z,6.23
2019-03-29T18:47:59.422Z,8.43
2019-03-29T18:50:28.014Z,6.67
2019-03-29T18:52:56.548Z,6.77
2019-03-29T18:55:25.133Z,6.30
2019-03-29T18:57:53.729Z,7.53
2019-03-29T19:00:32.743Z,8.40
2019-03-29T19:03:01.679Z,8.77
2019-03-29T19:05:30.561Z,9.30
2019-03-29T19:07:59.138Z,8.97
2019-03-29T19:10:27.677Z,13.60
2019-03-29T19:12:56.240Z,9.27
2019-03-29T19:15:24.883Z,9.47
2019-03-29T19:17:53.480Z,9.50
2019-03-29T19:20:27.827Z,11.57
2019-03-29T19:22:52.566Z,10.90
2019-03-29T19:25:21.140Z,18.30
2019-03-29T19:27:49.738Z,12.50
2019-03-29T19:30:18.933Z,13.37
2019-03-29T19:32:47.975Z,15.17
2019-03-29T19:35:16.858Z,12.40
2019-03-29T19:37:45.431Z,15.10
2019-03-29T19:40:14.229Z,14.13
2019-03-29T19:42:42.809Z,15.07
2019-03-29T19:45:12.278Z,13.67
2019-03-29T19:47:40.870Z,16.40
2019-03-29T19:50:10.177Z,16.70
2019-03-29T19:52:38.753Z,19.70
2019-03-29T19:55:07.625Z,16.93
2019-03-29T19:57:36.332Z,16.33
2019-03-29T20:00:06.610Z,19.10
2019-03-29T20:02:35.295Z,17.27
2019-03-29T20:05:04.388Z,18.47
2019-03-29T20:07:32.976Z,18.53
2019-03-29T20:10:01.590Z,17.30
2019-03-29T20:12:30.277Z,16.37
2019-03-29T20:14:58.878Z,15.83
2019-03-29T20:17:28.009Z,16.47
2019-03-29T20:19:56.674Z,17.00
2019-03-29T20:22:25.321Z,22.53
2019-03-29T20:24:53.929Z,17.20
2019-03-29T20:27:22.479Z,17.93
2019-03-29T20:29:51.049Z,18.03
2019-03-29T20:32:19.645Z,20.57
2019-03-29T20:34:48.282Z,18.97
2019-03-29T20:37:16.891Z,19.97
2019-03-29T20:39:45.483Z,19.57
2019-03-29T20:42:14.106Z,20.50
2019-03-29T20:44:42.670Z,22.03
2019-03-29T20:47:11.252Z,25.27
2019-03-29T20:49:39.812Z,24.80
2019-03-29T20:52:08.441Z,23.53
2019-03-29T20:54:37.037Z,25.10
2019-03-29T20:57:05.625Z,24.97
2019-03-29T20:59:34.215Z,24.83
2019-03-29T21:02:03.134Z,25.87
2019-03-29T21:04:31.785Z,25.70
2019-03-29T21:07:01.306Z,25.30
2019-03-29T21:09:29.945Z,22.50
2019-03-29T21:11:58.551Z,23.33
2019-03-29T21:14:27.172Z,21.63
2019-03-29T21:16:55.783Z,22.23
2019-03-29T21:19:25.234Z,17.63
2019-03-29T21:21:53.818Z,19.83
2019-03-29T21:24:22.508Z,19.17
2019-03-29T21:26:51.093Z,19.67
2019-03-29T21:29:19.699Z,18.87
2019-03-29T21:31:48.512Z,19.87
2019-03-29T21:34:17.097Z,19.97
2019-03-29T21:36:45.934Z,22.03
2019-03-29T21:39:14.798Z,20.60
2019-03-29T21:41:43.356Z,20.83
2019-03-29T21:44:11.923Z,20.97
2019-03-29T21:46:40.476Z,17.53
2019-03-29T21:49:09.053Z,18.17
2019-03-29T21:51:37.617Z,21.47
2019-03-29T21:54:06.398Z,19.57
2019-03-29T21:56:34.932Z,20.57
2019-03-29T21:59:03.510Z,23.00
2019-03-29T22:01:32.078Z,25.63
2019-03-29T22:04:00.650Z,19.70
2019-03-29T22:06:29.220Z,20.97
2019-03-29T22:08:57.785Z,20.70
2019-03-29T22:11:26.395Z,22.87
2019-03-29T22:13:56.296Z,25.93
2019-03-29T22:16:24.855Z,24.87
2019-03-29T22:18:53.437Z,24.53
2019-03-29T22:21:22.003Z,22.57
2019-03-29T22:23:50.578Z,20.93
2019-03-29T22:26:19.341Z,24.50
2019-03-29T22:28:47.908Z,22.77
2019-03-29T22:31:16.497Z,18.83
2019-03-29T22:33:45.119Z,20.20
2019-03-29T22:36:13.744Z,19.77
2019-03-29T22:38:42.336Z,23.00
2019-03-29T22:41:10.939Z,21.37
2019-03-29T22:43:39.553Z,19.17
2019-03-29T22:46:08.143Z,21.00
2019-03-29T22:48:36.705Z,23.07
2019-03-29T22:51:05.295Z,22.93
2019-03-29T22:53:33.867Z,21.50
2019-03-29T22:56:02.475Z,19.40
2019-03-29T22:58:31.059Z,24.87
2019-03-29T23:01:01.446Z,25.43
2019-03-29T23:03:30.050Z,21.80
2019-03-29T23:05:58.714Z,21.07
2019-03-29T23:08:27.295Z,20.30
2019-03-29T23:10:55.916Z,22.50
2019-03-29T23:13:24.477Z,24.07
2019-03-29T23:15:53.043Z,23.30
2019-03-29T23:18:21.606Z,24.93
2019-03-29T23:20:50.191Z,24.67
2019-03-29T23:23:18.742Z,24.47
2019-03-29T23:25:47.408Z,24.13
2019-03-29T23:28:15.953Z,22.37
2019-03-29T23:30:44.558Z,24.53
2019-03-29T23:33:13.156Z,22.90
2019-03-29T23:35:41.790Z,22.73
2019-03-29T23:38:10.422Z,23.57
2019-03-29T23:40:39.027Z,26.07
2019-03-29T23:43:07.542Z,25.20
2019-03-29T23:45:36.166Z,20.27
2019-03-29T23:48:04.707Z,24.30
2019-03-29T23:50:33.260Z,25.87
2019-03-29T23:53:01.839Z,23.20
2019-03-29T23:55:30.394Z,23.37
2019-03-29T23:57:58.999Z,25.20
